createdAt,value
2022-09-12T00:00:51.614Z,11.52
2022-09-12T00:06:22.347Z,11.42
2022-09-12T00:11:27.003Z,11.33
2022-09-12T00:16:31.672Z,11.24
2022-09-12T00:21:36.308Z,11.20
2022-09-12T00:26:39.275Z,11.18
2022-09-12T00:31:41.951Z,11.12
2022-09-12T00:36:45.086Z,11.07
2022-09-12T00:41:47.787Z,11.04
2022-09-12T00:46:59.506Z,11.03
2022-09-12T00:52:21.046Z,11.01
2022-09-12T00:57:30.078Z,10.98
2022-09-12T01:02:32.788Z,10.93
2022-09-12T01:07:40.045Z,10.87
2022-09-12T01:12:43.825Z,10.88
2022-09-12T01:17:58.687Z,10.90
2022-09-12T01:23:31.284Z,10.91
2022-09-12T01:28:52.308Z,10.86
2022-09-12T01:34:26.475Z,10.81
2022-09-12T01:40:03.391Z,10.82
2022-09-12T01:45:39.636Z,10.84
2022-09-12T01:51:00.467Z,10.85
2022-09-12T01:56:26.628Z,10.83
2022-09-12T02:01:34.017Z,10.79
2022-09-12T02:06:56.171Z,10.77
2022-09-12T02:12:01.533Z,10.76
2022-09-12T02:17:13.098Z,10.74
2022-09-12T02:22:19.942Z,10.70
2022-09-12T02:27:30.312Z,10.67
2022-09-12T02:32:43.660Z,10.69
2022-09-12T02:38:05.000Z,10.68
2022-09-12T02:43:07.888Z,10.68
2022-09-12T02:48:23.921Z,10.69
2022-09-12T02:53:26.818Z,10.69
2022-09-12T02:58:32.342Z,10.72
2022-09-12T03:03:50.241Z,10.77
2022-09-12T03:09:33.150Z,10.78
2022-09-12T03:14:47.852Z,10.77
2022-09-12T03:20:19.628Z,10.78
2022-09-12T03:25:29.400Z,10.85
2022-09-12T03:30:37.149Z,10.91
2022-09-12T03:35:40.524Z,10.97
2022-09-12T03:40:43.810Z,11.00
2022-09-12T03:45:52.016Z,10.98
2022-09-12T03:50:54.777Z,10.98
2022-09-12T03:55:58.302Z,10.96
2022-09-12T04:01:01.478Z,10.98
2022-09-12T04:06:05.042Z,10.97
2022-09-12T04:11:11.613Z,10.95
2022-09-12T04:16:15.716Z,10.97
2022-09-12T04:21:22.024Z,11.01
2022-09-12T04:26:24.754Z,11.05
2022-09-12T04:31:27.522Z,11.06
2022-09-12T04:36:30.349Z,11.08
2022-09-12T04:41:35.689Z,11.12
2022-09-12T04:46:42.617Z,11.13
2022-09-12T04:51:46.202Z,11.13
2022-09-12T04:56:50.607Z,11.14
2022-09-12T05:01:53.550Z,11.20
2022-09-12T05:06:56.352Z,11.26
2022-09-12T05:12:04.108Z,11.29
2022-09-12T05:17:08.196Z,11.31
2022-09-12T05:22:10.894Z,11.30
2022-09-12T05:27:13.565Z,11.33
2022-09-12T05:32:16.228Z,11.38
2022-09-12T05:37:18.988Z,11.41
2022-09-12T05:42:22.004Z,11.45
2022-09-12T05:47:24.903Z,11.51
2022-09-12T05:52:27.773Z,11.63
2022-09-12T05:57:30.518Z,11.75
2022-09-12T06:02:35.009Z,11.84
2022-09-12T06:07:38.583Z,11.92
2022-09-12T06:12:41.284Z,12.03
2022-09-12T06:17:46.416Z,12.21
2022-09-12T06:22:55.794Z,12.38
2022-09-12T06:27:58.751Z,12.53
2022-09-12T06:33:01.506Z,12.64
2022-09-12T06:38:05.410Z,12.73
2022-09-12T06:43:08.078Z,12.90
2022-09-12T06:48:10.738Z,13.07
2022-09-12T06:53:13.374Z,13.23
2022-09-12T06:58:16.310Z,13.35
2022-09-12T07:03:19.538Z,13.52
2022-09-12T07:08:22.208Z,13.70
2022-09-12T07:13:25.527Z,13.87
2022-09-12T07:18:29.424Z,14.01
2022-09-12T07:23:32.770Z,14.15
2022-09-12T07:28:35.986Z,14.30
2022-09-12T07:33:40.032Z,14.46
2022-09-12T07:38:44.136Z,14.63
2022-09-12T07:43:48.075Z,14.79
2022-09-12T07:48:55.778Z,14.89
2022-09-12T07:53:58.601Z,14.92
2022-09-12T07:59:02.405Z,14.97
2022-09-12T08:04:05.386Z,15.08
2022-09-12T08:09:08.371Z,15.16
2022-09-12T08:14:11.304Z,15.20
2022-09-12T08:19:14.220Z,15.25
2022-09-12T08:24:17.496Z,15.31
2022-09-12T08:29:21.066Z,15.33
2022-09-12T08:34:27.685Z,15.33
2022-09-12T08:39:30.885Z,15.43
2022-09-12T08:44:53.623Z,15.49
2022-09-12T08:50:09.025Z,15.58
2022-09-12T08:55:27.678Z,15.59
2022-09-12T09:00:42.796Z,15.61
2022-09-12T09:06:02.607Z,15.61
2022-09-12T09:11:14.616Z,15.64
2022-09-12T09:16:48.378Z,15.76
2022-09-12T09:21:57.486Z,16.04
2022-09-12T09:27:41.610Z,16.19
2022-09-12T09:32:51.151Z,16.46
2022-09-12T09:38:18.917Z,16.90
2022-09-12T09:43:23.976Z,17.13
2022-09-12T09:48:33.054Z,17.23
2022-09-12T09:53:43.262Z,17.17
2022-09-12T09:58:46.115Z,17.27
2022-09-12T10:03:54.264Z,17.37
2022-09-12T10:09:14.804Z,17.38
2022-09-12T10:14:31.380Z,17.35
2022-09-12T10:19:40.400Z,17.35
2022-09-12T10:24:49.222Z,17.41
2022-09-12T10:30:00.636Z,17.57
2022-09-12T10:35:25.556Z,17.65
2022-09-12T10:41:03.823Z,17.75
2022-09-12T10:46:19.867Z,17.75
2022-09-12T10:51:25.881Z,17.70
2022-09-12T10:56:30.984Z,17.71
2022-09-12T11:01:45.245Z,17.80
2022-09-12T11:07:20.796Z,17.92
2022-09-12T11:12:35.292Z,18.12
2022-09-12T11:17:45.112Z,18.28
2022-09-12T11:23:17.210Z,18.59
2022-09-12T11:28:35.894Z,19.11
2022-09-12T11:33:56.509Z,19.61
2022-09-12T11:39:14.673Z,20.00
2022-09-12T11:44:21.494Z,20.40
2022-09-12T11:49:38.586Z,20.32
2022-09-12T11:54:59.606Z,19.75
2022-09-12T12:00:27.807Z,19.25
2022-09-12T12:06:01.949Z,19.02
2022-09-12T12:11:06.534Z,19.13
2022-09-12T12:16:31.338Z,19.32
2022-09-12T12:21:52.254Z,19.26
2022-09-12T12:26:58.154Z,19.07
2022-09-12T12:32:06.528Z,18.85
2022-09-12T12:37:21.108Z,18.63
2022-09-12T12:42:34.558Z,18.94
2022-09-12T12:47:37.692Z,20.88
2022-09-12T12:52:50.639Z,22.86
2022-09-12T12:57:56.054Z,22.45
2022-09-12T13:03:01.543Z,21.10
2022-09-12T13:08:19.269Z,20.17
2022-09-12T13:14:02.082Z,19.42
2022-09-12T13:19:08.448Z,19.01
2022-09-12T13:24:17.142Z,19.22
2022-09-12T13:29:22.327Z,19.32
2022-09-12T13:34:26.301Z,19.15
2022-09-12T13:39:35.684Z,18.97
2022-09-12T13:44:50.934Z,18.95
2022-09-12T13:49:54.975Z,19.05
2022-09-12T13:54:59.579Z,19.09
2022-09-12T14:00:07.557Z,18.96
2022-09-12T14:05:22.417Z,18.84
2022-09-12T14:10:39.500Z,18.71
2022-09-12T14:15:47.492Z,18.67
2022-09-12T14:20:53.445Z,18.55
2022-09-12T14:26:00.004Z,18.41
2022-09-12T14:31:10.519Z,18.27
2022-09-12T14:36:24.493Z,18.34
2022-09-12T14:41:34.413Z,18.64
2022-09-12T14:46:39.216Z,18.65
2022-09-12T14:51:51.177Z,19.44
2022-09-12T14:56:55.583Z,23.93
2022-09-12T15:02:13.555Z,28.52
2022-09-12T15:07:22.837Z,32.04
2022-09-12T15:12:25.603Z,34.29
2022-09-12T15:17:28.506Z,35.90
2022-09-12T15:22:33.158Z,36.78
2022-09-12T15:27:35.864Z,36.22
2022-09-12T15:32:40.161Z,33.02
2022-09-12T15:37:42.803Z,29.76
2022-09-12T15:42:45.498Z,27.17
2022-09-12T15:47:48.300Z,25.55
2022-09-12T15:52:51.492Z,25.97
2022-09-12T15:57:54.512Z,26.67
2022-09-12T16:02:57.459Z,28.05
2022-09-12T16:08:00.408Z,27.01
2022-09-12T16:13:04.641Z,27.33
2022-09-12T16:18:08.075Z,27.92
2022-09-12T16:23:13.930Z,26.73
2022-09-12T16:28:16.570Z,24.89
2022-09-12T16:33:19.271Z,23.35
2022-09-12T16:38:22.604Z,22.22
2022-09-12T16:43:25.338Z,21.23
2022-09-12T16:48:28.049Z,20.52
2022-09-12T16:53:35.653Z,20.00
2022-09-12T16:58:42.069Z,19.51
2022-09-12T17:03:45.861Z,19.04
2022-09-12T17:08:51.063Z,18.67
2022-09-12T17:14:11.375Z,18.33
2022-09-12T17:19:22.328Z,18.00
2022-09-12T17:24:25.424Z,17.72
2022-09-12T17:29:28.743Z,17.40
2022-09-12T17:34:31.964Z,17.09
2022-09-12T17:39:34.597Z,16.80
2022-09-12T17:44:37.658Z,16.59
2022-09-12T17:49:40.678Z,16.37
2022-09-12T17:54:43.349Z,16.23
2022-09-12T17:59:45.977Z,16.08
2022-09-12T18:04:48.760Z,15.92
2022-09-12T18:09:51.715Z,15.77
2022-09-12T18:14:54.447Z,15.62
2022-09-12T18:19:57.133Z,15.47
2022-09-12T18:24:59.860Z,15.33
2022-09-12T18:30:20.611Z,15.21
2022-09-12T18:35:24.509Z,15.14
2022-09-12T18:40:27.135Z,15.10
2022-09-12T18:45:29.805Z,15.07
2022-09-12T18:50:33.322Z,15.00
2022-09-12T18:55:36.122Z,14.91
2022-09-12T19:00:41.110Z,14.85
2022-09-12T19:05:43.978Z,14.81
2022-09-12T19:10:54.868Z,14.73
2022-09-12T19:15:59.620Z,14.66
2022-09-12T19:21:04.061Z,14.61
2022-09-12T19:26:08.885Z,14.54
2022-09-12T19:31:14.296Z,14.45
2022-09-12T19:36:43.750Z,14.32
2022-09-12T19:41:43.012Z,14.21
2022-09-12T19:46:45.734Z,14.14
2022-09-12T19:51:48.535Z,14.12
2022-09-12T19:56:51.160Z,14.09
2022-09-12T20:01:53.946Z,14.02
2022-09-12T20:06:56.811Z,13.86
2022-09-12T20:11:59.441Z,13.66
2022-09-12T20:17:02.101Z,13.49
2022-09-12T20:22:05.156Z,13.35
2022-09-12T20:27:08.217Z,13.24
2022-09-12T20:32:11.565Z,13.19
2022-09-12T20:37:14.719Z,13.16
2022-09-12T20:42:17.355Z,13.10
2022-09-12T20:47:20.034Z,12.98
2022-09-12T20:52:22.684Z,12.86
2022-09-12T20:57:25.557Z,12.73
2022-09-12T21:02:29.990Z,12.55
2022-09-12T21:07:32.979Z,12.37
2022-09-12T21:12:35.585Z,12.28
2022-09-12T21:17:38.277Z,12.29
2022-09-12T21:22:40.973Z,12.24
2022-09-12T21:27:43.593Z,12.20
2022-09-12T21:32:46.377Z,12.15
2022-09-12T21:37:52.989Z,12.10
2022-09-12T21:42:55.760Z,12.10
2022-09-12T21:47:58.973Z,12.11
2022-09-12T21:53:01.654Z,12.15
2022-09-12T21:58:04.313Z,12.11
2022-09-12T22:03:08.271Z,12.03
2022-09-12T22:08:11.731Z,11.92
2022-09-12T22:13:14.409Z,11.78
2022-09-12T22:18:17.018Z,11.63
2022-09-12T22:23:38.039Z,11.54
2022-09-12T22:28:41.623Z,11.50
2022-09-12T22:33:44.976Z,11.43
2022-09-12T22:38:47.742Z,11.37
2022-09-12T22:43:50.570Z,11.24
2022-09-12T22:48:55.790Z,11.10
2022-09-12T22:53:59.178Z,10.92
2022-09-12T22:59:02.150Z,10.76
2022-09-12T23:04:05.461Z,10.75
2022-09-12T23:09:08.160Z,10.76
2022-09-12T23:14:10.830Z,10.75
2022-09-12T23:19:13.660Z,10.72
2022-09-12T23:24:16.436Z,10.69
2022-09-12T23:29:19.045Z,10.66
2022-09-12T23:34:21.752Z,10.63
2022-09-12T23:39:24.555Z,10.59
2022-09-12T23:44:27.247Z,10.53
2022-09-12T23:49:30.270Z,10.43
2022-09-12T23:54:32.959Z,10.30
2022-09-12T23:59:35.626Z,10.15
